sensor_id;sensor_type;location;lat;lon;timestamp;P1;durP1;ratioP1;P2;durP2;ratioP2
47844;SDS011;33605;48.822;8.796;2023-04-26T00:02:09;7.53;;;5.20;;
47844;SDS011;33605;48.822;8.796;2023-04-26T00:04:36;5.50;;;5.00;;
47844;SDS011;33605;48.822;8.796;2023-04-26T00:07:02;6.37;;;5.30;;
47844;SDS011;33605;48.822;8.796;2023-04-26T00:09:28;6.23;;;5.63;;
47844;SDS011;33605;48.822;8.796;2023-04-26T00:11:54;7.13;;;6.03;;
47844;SDS011;33605;48.822;8.796;2023-04-26T00:14:20;6.47;;;4.83;;
47844;SDS011;33605;48.822;8.796;2023-04-26T00:16:45;5.23;;;4.73;;
47844;SDS011;33605;48.822;8.796;2023-04-26T00:19:11;6.23;;;5.00;;
47844;SDS011;33605;48.822;8.796;2023-04-26T00:21:37;5.43;;;4.50;;
47844;SDS011;33605;48.822;8.796;2023-04-26T00:24:03;6.87;;;5.27;;
47844;SDS011;33605;48.822;8.796;2023-04-26T00:26:30;6.23;;;4.60;;
47844;SDS011;33605;48.822;8.796;2023-04-26T00:28:56;8.43;;;4.57;;
47844;SDS011;33605;48.822;8.796;2023-04-26T00:31:21;5.07;;;4.43;;
47844;SDS011;33605;48.822;8.796;2023-04-26T00:33:47;5.83;;;5.20;;
47844;SDS011;33605;48.822;8.796;2023-04-26T00:36:13;6.33;;;5.30;;
47844;SDS011;33605;48.822;8.796;2023-04-26T00:38:40;6.10;;;5.50;;
47844;SDS011;33605;48.822;8.796;2023-04-26T00:41:06;8.70;;;4.90;;
47844;SDS011;33605;48.822;8.796;2023-04-26T00:43:32;7.00;;;4.90;;
47844;SDS011;33605;48.822;8.796;2023-04-26T00:45:57;6.40;;;4.37;;
47844;SDS011;33605;48.822;8.796;2023-04-26T00:48:23;7.70;;;4.73;;
47844;SDS011;33605;48.822;8.796;2023-04-26T00:50:49;5.43;;;4.43;;
47844;SDS011;33605;48.822;8.796;2023-04-26T00:53:15;6.33;;;5.13;;
47844;SDS011;33605;48.822;8.796;2023-04-26T00:55:41;6.77;;;5.00;;
47844;SDS011;33605;48.822;8.796;2023-04-26T00:58:08;5.87;;;4.73;;
47844;SDS011;33605;48.822;8.796;2023-04-26T01:00:34;9.07;;;4.30;;
47844;SDS011;33605;48.822;8.796;2023-04-26T01:03:00;4.87;;;4.43;;
47844;SDS011;33605;48.822;8.796;2023-04-26T01:05:25;4.57;;;4.13;;
47844;SDS011;33605;48.822;8.796;2023-04-26T01:07:51;5.47;;;4.80;;
47844;SDS011;33605;48.822;8.796;2023-04-26T01:10:17;4.20;;;3.80;;
47844;SDS011;33605;48.822;8.796;2023-04-26T01:12:43;5.20;;;4.00;;
47844;SDS011;33605;48.822;8.796;2023-04-26T01:15:09;5.90;;;4.57;;
47844;SDS011;33605;48.822;8.796;2023-04-26T01:17:36;5.00;;;3.87;;
47844;SDS011;33605;48.822;8.796;2023-04-26T01:20:02;4.93;;;4.10;;
47844;SDS011;33605;48.822;8.796;2023-04-26T01:22:32;5.47;;;4.17;;
47844;SDS011;33605;48.822;8.796;2023-04-26T01:24:58;4.80;;;4.40;;
47844;SDS011;33605;48.822;8.796;2023-04-26T01:27:25;6.80;;;4.50;;
47844;SDS011;33605;48.822;8.796;2023-04-26T01:29:51;7.97;;;4.60;;
47844;SDS011;33605;48.822;8.796;2023-04-26T01:32:18;4.30;;;4.00;;
47844;SDS011;33605;48.822;8.796;2023-04-26T01:34:43;4.33;;;3.93;;
47844;SDS011;33605;48.822;8.796;2023-04-26T01:37:09;6.53;;;4.07;;
47844;SDS011;33605;48.822;8.796;2023-04-26T01:39:35;4.30;;;3.50;;
47844;SDS011;33605;48.822;8.796;2023-04-26T01:42:01;5.97;;;3.90;;
47844;SDS011;33605;48.822;8.796;2023-04-26T01:44:28;10.97;;;4.27;;
47844;SDS011;33605;48.822;8.796;2023-04-26T01:46:54;4.47;;;4.07;;
47844;SDS011;33605;48.822;8.796;2023-04-26T01:49:20;4.80;;;3.73;;
47844;SDS011;33605;48.822;8.796;2023-04-26T01:51:45;5.67;;;4.30;;
47844;SDS011;33605;48.822;8.796;2023-04-26T01:54:11;3.90;;;3.50;;
47844;SDS011;33605;48.822;8.796;2023-04-26T01:56:37;5.57;;;3.50;;
47844;SDS011;33605;48.822;8.796;2023-04-26T01:59:03;3.80;;;3.40;;
47844;SDS011;33605;48.822;8.796;2023-04-26T02:01:28;5.03;;;3.60;;
47844;SDS011;33605;48.822;8.796;2023-04-26T02:03:55;3.60;;;3.30;;
47844;SDS011;33605;48.822;8.796;2023-04-26T02:06:20;3.70;;;3.40;;
47844;SDS011;33605;48.822;8.796;2023-04-26T02:08:46;6.30;;;3.87;;
47844;SDS011;33605;48.822;8.796;2023-04-26T02:11:11;3.90;;;3.60;;
47844;SDS011;33605;48.822;8.796;2023-04-26T02:13:37;5.10;;;3.70;;
47844;SDS011;33605;48.822;8.796;2023-04-26T02:16:06;4.00;;;3.60;;
47844;SDS011;33605;48.822;8.796;2023-04-26T02:18:32;4.00;;;3.53;;
47844;SDS011;33605;48.822;8.796;2023-04-26T02:20:58;3.60;;;3.30;;
47844;SDS011;33605;48.822;8.796;2023-04-26T02:23:24;3.80;;;3.20;;
47844;SDS011;33605;48.822;8.796;2023-04-26T02:25:49;4.00;;;3.70;;
47844;SDS011;33605;48.822;8.796;2023-04-26T02:28:16;4.63;;;4.10;;
47844;SDS011;33605;48.822;8.796;2023-04-26T02:30:42;5.07;;;4.57;;
47844;SDS011;33605;48.822;8.796;2023-04-26T02:33:08;7.40;;;4.97;;
47844;SDS011;33605;48.822;8.796;2023-04-26T02:35:34;6.57;;;4.70;;
47844;SDS011;33605;48.822;8.796;2023-04-26T02:38:01;5.70;;;4.57;;
47844;SDS011;33605;48.822;8.796;2023-04-26T02:40:27;5.70;;;5.13;;
47844;SDS011;33605;48.822;8.796;2023-04-26T02:42:54;7.13;;;5.10;;
47844;SDS011;33605;48.822;8.796;2023-04-26T02:45:20;6.20;;;4.60;;
47844;SDS011;33605;48.822;8.796;2023-04-26T02:47:45;4.63;;;4.17;;
47844;SDS011;33605;48.822;8.796;2023-04-26T02:50:11;5.13;;;3.63;;
47844;SDS011;33605;48.822;8.796;2023-04-26T02:52:36;51.50;;;6.83;;
47844;SDS011;33605;48.822;8.796;2023-04-26T02:55:02;10.23;;;4.03;;
47844;SDS011;33605;48.822;8.796;2023-04-26T02:57:29;6.17;;;4.17;;
47844;SDS011;33605;48.822;8.796;2023-04-26T02:59:55;5.33;;;3.73;;
47844;SDS011;33605;48.822;8.796;2023-04-26T03:02:21;4.10;;;3.20;;
47844;SDS011;33605;48.822;8.796;2023-04-26T03:04:47;4.00;;;3.70;;
47844;SDS011;33605;48.822;8.796;2023-04-26T03:07:13;5.80;;;3.60;;
47844;SDS011;33605;48.822;8.796;2023-04-26T03:09:38;3.93;;;3.60;;
47844;SDS011;33605;48.822;8.796;2023-04-26T03:12:05;4.40;;;3.73;;
47844;SDS011;33605;48.822;8.796;2023-04-26T03:14:31;4.43;;;3.50;;
47844;SDS011;33605;48.822;8.796;2023-04-26T03:16:57;4.30;;;3.90;;
47844;SDS011;33605;48.822;8.796;2023-04-26T03:19:26;5.20;;;4.10;;
47844;SDS011;33605;48.822;8.796;2023-04-26T03:21:52;3.97;;;3.57;;
47844;SDS011;33605;48.822;8.796;2023-04-26T03:24:18;4.30;;;3.90;;
47844;SDS011;33605;48.822;8.796;2023-04-26T03:26:44;6.97;;;5.03;;
47844;SDS011;33605;48.822;8.796;2023-04-26T03:29:10;4.67;;;3.90;;
47844;SDS011;33605;48.822;8.796;2023-04-26T03:31:36;7.53;;;5.27;;
47844;SDS011;33605;48.822;8.796;2023-04-26T03:34:02;4.80;;;4.30;;
47844;SDS011;33605;48.822;8.796;2023-04-26T03:36:28;4.27;;;3.87;;
47844;SDS011;33605;48.822;8.796;2023-04-26T03:38:54;4.53;;;3.87;;
47844;SDS011;33605;48.822;8.796;2023-04-26T03:41:20;4.30;;;3.90;;
47844;SDS011;33605;48.822;8.796;2023-04-26T03:43:46;4.67;;;4.00;;
47844;SDS011;33605;48.822;8.796;2023-04-26T03:46:12;5.07;;;4.03;;
47844;SDS011;33605;48.822;8.796;2023-04-26T03:48:38;3.33;;;3.03;;
47844;SDS011;33605;48.822;8.796;2023-04-26T03:51:04;8.20;;;4.00;;
47844;SDS011;33605;48.822;8.796;2023-04-26T03:53:30;3.30;;;3.00;;
47844;SDS011;33605;48.822;8.796;2023-04-26T03:55:56;4.07;;;3.67;;
47844;SDS011;33605;48.822;8.796;2023-04-26T03:58:22;3.70;;;3.40;;
47844;SDS011;33605;48.822;8.796;2023-04-26T04:00:48;4.63;;;3.17;;
47844;SDS011;33605;48.822;8.796;2023-04-26T04:03:14;3.57;;;3.23;;
47844;SDS011;33605;48.822;8.796;2023-04-26T04:05:40;5.73;;;4.37;;
47844;SDS011;33605;48.822;8.796;2023-04-26T04:08:06;14.87;;;7.00;;
47844;SDS011;33605;48.822;8.796;2023-04-26T04:10:32;12.80;;;7.17;;
47844;SDS011;33605;48.822;8.796;2023-04-26T04:12:57;6.00;;;4.70;;
47844;SDS011;33605;48.822;8.796;2023-04-26T04:15:23;4.93;;;4.20;;
47844;SDS011;33605;48.822;8.796;2023-04-26T04:17:48;5.37;;;4.80;;
47844;SDS011;33605;48.822;8.796;2023-04-26T04:20:14;4.23;;;3.70;;
47844;SDS011;33605;48.822;8.796;2023-04-26T04:22:40;3.90;;;3.50;;
47844;SDS011;33605;48.822;8.796;2023-04-26T04:25:09;4.77;;;3.80;;
47844;SDS011;33605;48.822;8.796;2023-04-26T04:27:36;14.67;;;3.80;;
47844;SDS011;33605;48.822;8.796;2023-04-26T04:30:05;3.67;;;3.37;;
47844;SDS011;33605;48.822;8.796;2023-04-26T04:32:32;4.20;;;3.30;;
47844;SDS011;33605;48.822;8.796;2023-04-26T04:34:59;24.20;;;4.80;;
47844;SDS011;33605;48.822;8.796;2023-04-26T04:37:25;4.67;;;3.70;;
47844;SDS011;33605;48.822;8.796;2023-04-26T04:39:51;4.40;;;3.20;;
47844;SDS011;33605;48.822;8.796;2023-04-26T04:42:17;4.13;;;3.57;;
47844;SDS011;33605;48.822;8.796;2023-04-26T04:44:43;4.03;;;3.63;;
47844;SDS011;33605;48.822;8.796;2023-04-26T04:47:09;3.90;;;3.50;;
47844;SDS011;33605;48.822;8.796;2023-04-26T04:49:35;3.07;;;2.77;;
47844;SDS011;33605;48.822;8.796;2023-04-26T04:52:01;4.47;;;3.33;;
47844;SDS011;33605;48.822;8.796;2023-04-26T04:54:27;5.63;;;3.90;;
47844;SDS011;33605;48.822;8.796;2023-04-26T04:56:53;4.50;;;3.80;;
47844;SDS011;33605;48.822;8.796;2023-04-26T04:59:18;7.37;;;4.80;;
47844;SDS011;33605;48.822;8.796;2023-04-26T05:01:44;5.40;;;4.40;;
47844;SDS011;33605;48.822;8.796;2023-04-26T05:04:09;4.97;;;4.47;;
47844;SDS011;33605;48.822;8.796;2023-04-26T05:06:35;4.13;;;3.60;;
47844;SDS011;33605;48.822;8.796;2023-04-26T05:09:01;5.90;;;4.83;;
47844;SDS011;33605;48.822;8.796;2023-04-26T05:11:26;8.40;;;6.67;;
47844;SDS011;33605;48.822;8.796;2023-04-26T05:13:52;7.23;;;5.53;;
47844;SDS011;33605;48.822;8.796;2023-04-26T05:16:18;6.90;;;4.77;;
47844;SDS011;33605;48.822;8.796;2023-04-26T05:18:43;12.77;;;5.27;;
47844;SDS011;33605;48.822;8.796;2023-04-26T05:21:09;10.23;;;4.07;;
47844;SDS011;33605;48.822;8.796;2023-04-26T05:23:34;4.30;;;3.40;;
47844;SDS011;33605;48.822;8.796;2023-04-26T05:26:03;4.60;;;4.20;;
47844;SDS011;33605;48.822;8.796;2023-04-26T05:28:30;5.20;;;4.40;;
47844;SDS011;33605;48.822;8.796;2023-04-26T05:30:55;6.40;;;4.57;;
47844;SDS011;33605;48.822;8.796;2023-04-26T05:33:22;5.77;;;3.97;;
47844;SDS011;33605;48.822;8.796;2023-04-26T05:35:47;17.60;;;5.10;;
47844;SDS011;33605;48.822;8.796;2023-04-26T05:38:13;16.03;;;4.83;;
47844;SDS011;33605;48.822;8.796;2023-04-26T05:40:39;10.13;;;4.37;;
47844;SDS011;33605;48.822;8.796;2023-04-26T05:43:05;4.23;;;3.67;;
47844;SDS011;33605;48.822;8.796;2023-04-26T05:45:30;4.53;;;3.77;;
47844;SDS011;33605;48.822;8.796;2023-04-26T05:47:56;3.70;;;3.30;;
47844;SDS011;33605;48.822;8.796;2023-04-26T05:50:22;4.13;;;3.83;;
47844;SDS011;33605;48.822;8.796;2023-04-26T05:52:47;6.07;;;4.60;;
47844;SDS011;33605;48.822;8.796;2023-04-26T05:55:13;7.63;;;4.77;;
47844;SDS011;33605;48.822;8.796;2023-04-26T05:57:39;5.27;;;4.63;;
47844;SDS011;33605;48.822;8.796;2023-04-26T06:00:04;6.27;;;4.30;;
47844;SDS011;33605;48.822;8.796;2023-04-26T06:02:33;7.17;;;6.13;;
47844;SDS011;33605;48.822;8.796;2023-04-26T06:04:59;8.10;;;6.20;;
47844;SDS011;33605;48.822;8.796;2023-04-26T06:07:24;11.93;;;6.60;;
47844;SDS011;33605;48.822;8.796;2023-04-26T06:09:50;9.63;;;6.50;;
47844;SDS011;33605;48.822;8.796;2023-04-26T06:12:15;7.57;;;6.73;;
47844;SDS011;33605;48.822;8.796;2023-04-26T06:14:41;14.23;;;7.97;;
47844;SDS011;33605;48.822;8.796;2023-04-26T06:17:07;8.13;;;6.87;;
47844;SDS011;33605;48.822;8.796;2023-04-26T06:19:33;12.90;;;7.73;;
47844;SDS011;33605;48.822;8.796;2023-04-26T06:21:59;8.10;;;6.50;;
47844;SDS011;33605;48.822;8.796;2023-04-26T06:24:24;9.37;;;7.10;;
47844;SDS011;33605;48.822;8.796;2023-04-26T06:26:50;9.00;;;6.60;;
47844;SDS011;33605;48.822;8.796;2023-04-26T06:29:16;10.43;;;7.10;;
47844;SDS011;33605;48.822;8.796;2023-04-26T06:31:42;9.70;;;7.20;;
47844;SDS011;33605;48.822;8.796;2023-04-26T06:34:07;11.23;;;6.83;;
47844;SDS011;33605;48.822;8.796;2023-04-26T06:36:33;10.67;;;7.50;;
47844;SDS011;33605;48.822;8.796;2023-04-26T06:38:59;11.17;;;7.20;;
47844;SDS011;33605;48.822;8.796;2023-04-26T06:41:25;11.20;;;6.80;;
47844;SDS011;33605;48.822;8.796;2023-04-26T06:43:50;12.20;;;6.47;;
47844;SDS011;33605;48.822;8.796;2023-04-26T06:46:16;8.30;;;5.10;;
47844;SDS011;33605;48.822;8.796;2023-04-26T06:48:42;9.87;;;5.87;;
47844;SDS011;33605;48.822;8.796;2023-04-26T06:51:07;7.67;;;5.43;;
47844;SDS011;33605;48.822;8.796;2023-04-26T06:53:36;12.93;;;6.67;;
47844;SDS011;33605;48.822;8.796;2023-04-26T06:56:02;9.47;;;6.60;;
47844;SDS011;33605;48.822;8.796;2023-04-26T06:58:28;9.57;;;6.10;;
47844;SDS011;33605;48.822;8.796;2023-04-26T07:00:54;7.67;;;5.63;;
47844;SDS011;33605;48.822;8.796;2023-04-26T07:03:20;12.20;;;6.60;;
47844;SDS011;33605;48.822;8.796;2023-04-26T07:05:47;14.63;;;6.80;;
47844;SDS011;33605;48.822;8.796;2023-04-26T07:08:13;7.73;;;5.50;;
47844;SDS011;33605;48.822;8.796;2023-04-26T07:10:39;8.10;;;5.10;;
47844;SDS011;33605;48.822;8.796;2023-04-26T07:13:05;6.83;;;4.70;;
47844;SDS011;33605;48.822;8.796;2023-04-26T07:15:31;10.37;;;5.50;;
47844;SDS011;33605;48.822;8.796;2023-04-26T07:17:57;10.30;;;5.40;;
47844;SDS011;33605;48.822;8.796;2023-04-26T07:20:22;9.87;;;4.93;;
47844;SDS011;33605;48.822;8.796;2023-04-26T07:22:48;7.70;;;4.77;;
47844;SDS011;33605;48.822;8.796;2023-04-26T07:25:15;8.57;;;5.97;;
47844;SDS011;33605;48.822;8.796;2023-04-26T07:27:40;9.80;;;5.57;;
47844;SDS011;33605;48.822;8.796;2023-04-26T07:30:07;12.70;;;5.50;;
47844;SDS011;33605;48.822;8.796;2023-04-26T07:32:34;11.83;;;6.10;;
47844;SDS011;33605;48.822;8.796;2023-04-26T07:35:00;14.23;;;6.50;;
47844;SDS011;33605;48.822;8.796;2023-04-26T07:37:39;8.17;;;6.30;;
47844;SDS011;33605;48.822;8.796;2023-04-26T07:40:05;10.40;;;6.50;;
47844;SDS011;33605;48.822;8.796;2023-04-26T07:42:34;10.13;;;5.77;;
47844;SDS011;33605;48.822;8.796;2023-04-26T07:45:00;10.90;;;5.37;;
47844;SDS011;33605;48.822;8.796;2023-04-26T07:47:25;10.63;;;4.93;;
47844;SDS011;33605;48.822;8.796;2023-04-26T07:49:52;7.80;;;5.10;;
47844;SDS011;33605;48.822;8.796;2023-04-26T07:52:18;8.63;;;5.50;;
47844;SDS011;33605;48.822;8.796;2023-04-26T07:54:44;10.67;;;6.17;;
47844;SDS011;33605;48.822;8.796;2023-04-26T07:57:11;13.53;;;6.17;;
47844;SDS011;33605;48.822;8.796;2023-04-26T07:59:36;8.20;;;6.10;;
47844;SDS011;33605;48.822;8.796;2023-04-26T08:02:02;9.83;;;5.70;;
47844;SDS011;33605;48.822;8.796;2023-04-26T08:04:31;6.00;;;5.37;;
47844;SDS011;33605;48.822;8.796;2023-04-26T08:06:58;9.33;;;5.73;;
47844;SDS011;33605;48.822;8.796;2023-04-26T08:09:26;8.50;;;5.90;;
47844;SDS011;33605;48.822;8.796;2023-04-26T08:11:52;9.77;;;5.73;;
47844;SDS011;33605;48.822;8.796;2023-04-26T08:14:18;7.50;;;5.40;;
47844;SDS011;33605;48.822;8.796;2023-04-26T08:16:43;11.10;;;5.27;;
47844;SDS011;33605;48.822;8.796;2023-04-26T08:19:09;6.70;;;4.47;;
47844;SDS011;33605;48.822;8.796;2023-04-26T08:21:35;11.43;;;6.20;;
47844;SDS011;33605;48.822;8.796;2023-04-26T08:24:01;7.87;;;5.07;;
47844;SDS011;33605;48.822;8.796;2023-04-26T08:26:27;8.87;;;5.40;;
47844;SDS011;33605;48.822;8.796;2023-04-26T08:28:53;6.77;;;4.90;;
47844;SDS011;33605;48.822;8.796;2023-04-26T08:31:18;9.73;;;5.20;;
47844;SDS011;33605;48.822;8.796;2023-04-26T08:33:46;6.97;;;5.20;;
47844;SDS011;33605;48.822;8.796;2023-04-26T08:36:12;7.60;;;4.73;;
47844;SDS011;33605;48.822;8.796;2023-04-26T08:38:37;11.73;;;4.87;;
47844;SDS011;33605;48.822;8.796;2023-04-26T08:41:06;7.17;;;4.67;;
47844;SDS011;33605;48.822;8.796;2023-04-26T08:43:35;17.27;;;5.07;;
47844;SDS011;33605;48.822;8.796;2023-04-26T08:46:01;9.10;;;4.43;;
47844;SDS011;33605;48.822;8.796;2023-04-26T08:48:31;12.50;;;5.27;;
47844;SDS011;33605;48.822;8.796;2023-04-26T08:51:00;8.93;;;4.70;;
47844;SDS011;33605;48.822;8.796;2023-04-26T08:53:26;7.50;;;5.00;;
47844;SDS011;33605;48.822;8.796;2023-04-26T08:55:53;6.33;;;4.80;;
47844;SDS011;33605;48.822;8.796;2023-04-26T08:58:19;8.33;;;4.43;;
47844;SDS011;33605;48.822;8.796;2023-04-26T09:00:45;8.57;;;4.90;;
47844;SDS011;33605;48.822;8.796;2023-04-26T09:03:13;16.63;;;5.13;;
47844;SDS011;33605;48.822;8.796;2023-04-26T09:05:40;5.70;;;4.70;;
47844;SDS011;33605;48.822;8.796;2023-04-26T09:08:11;10.60;;;7.80;;
47844;SDS011;33605;48.822;8.796;2023-04-26T09:10:38;5.30;;;4.77;;
47844;SDS011;33605;48.822;8.796;2023-04-26T09:13:03;7.83;;;4.70;;
47844;SDS011;33605;48.822;8.796;2023-04-26T09:15:29;6.00;;;4.37;;
47844;SDS011;33605;48.822;8.796;2023-04-26T09:17:56;12.10;;;5.53;;
47844;SDS011;33605;48.822;8.796;2023-04-26T09:20:44;9.90;;;4.70;;
47844;SDS011;33605;48.822;8.796;2023-04-26T09:23:10;4.80;;;4.17;;
47844;SDS011;33605;48.822;8.796;2023-04-26T09:25:36;4.80;;;4.37;;
47844;SDS011;33605;48.822;8.796;2023-04-26T09:28:02;9.53;;;5.73;;
47844;SDS011;33605;48.822;8.796;2023-04-26T09:30:28;7.20;;;4.90;;
47844;SDS011;33605;48.822;8.796;2023-04-26T09:32:56;10.90;;;4.50;;
47844;SDS011;33605;48.822;8.796;2023-04-26T09:37:52;10.33;;;4.87;;
47844;SDS011;33605;48.822;8.796;2023-04-26T09:40:19;10.73;;;5.00;;
47844;SDS011;33605;48.822;8.796;2023-04-26T09:42:46;6.73;;;4.00;;
47844;SDS011;33605;48.822;8.796;2023-04-26T09:45:21;7.20;;;3.80;;
47844;SDS011;33605;48.822;8.796;2023-04-26T09:47:48;6.00;;;4.43;;
47844;SDS011;33605;48.822;8.796;2023-04-26T09:50:23;5.90;;;4.37;;
47844;SDS011;33605;48.822;8.796;2023-04-26T09:52:50;6.83;;;4.90;;
47844;SDS011;33605;48.822;8.796;2023-04-26T09:55:24;6.50;;;4.73;;
47844;SDS011;33605;48.822;8.796;2023-04-26T09:57:52;5.47;;;3.90;;
47844;SDS011;33605;48.822;8.796;2023-04-26T10:00:18;5.37;;;3.97;;
47844;SDS011;33605;48.822;8.796;2023-04-26T10:02:45;4.50;;;4.00;;
47844;SDS011;33605;48.822;8.796;2023-04-26T10:05:11;5.80;;;4.47;;
47844;SDS011;33605;48.822;8.796;2023-04-26T10:07:40;5.50;;;3.97;;
47844;SDS011;33605;48.822;8.796;2023-04-26T10:10:06;4.63;;;3.93;;
47844;SDS011;33605;48.822;8.796;2023-04-26T10:12:32;5.50;;;4.40;;
47844;SDS011;33605;48.822;8.796;2023-04-26T10:14:58;6.30;;;4.43;;
47844;SDS011;33605;48.822;8.796;2023-04-26T10:17:25;5.30;;;3.67;;
47844;SDS011;33605;48.822;8.796;2023-04-26T10:19:52;6.73;;;3.77;;
47844;SDS011;33605;48.822;8.796;2023-04-26T10:22:21;7.03;;;4.23;;
47844;SDS011;33605;48.822;8.796;2023-04-26T10:24:48;11.67;;;4.47;;
47844;SDS011;33605;48.822;8.796;2023-04-26T10:27:14;18.97;;;4.43;;
47844;SDS011;33605;48.822;8.796;2023-04-26T10:32:22;9.20;;;7.00;;
47844;SDS011;33605;48.822;8.796;2023-04-26T10:35:10;6.50;;;4.70;;
47844;SDS011;33605;48.822;8.796;2023-04-26T10:40:41;8.20;;;4.17;;
47844;SDS011;33605;48.822;8.796;2023-04-26T10:45:46;6.30;;;3.47;;
47844;SDS011;33605;48.822;8.796;2023-04-26T10:48:13;5.50;;;3.93;;
47844;SDS011;33605;48.822;8.796;2023-04-26T10:53:32;6.70;;;4.03;;
47844;SDS011;33605;48.822;8.796;2023-04-26T10:56:03;5.73;;;3.87;;
47844;SDS011;33605;48.822;8.796;2023-04-26T11:01:14;4.23;;;3.83;;
47844;SDS011;33605;48.822;8.796;2023-04-26T11:06:26;6.77;;;4.40;;
47844;SDS011;33605;48.822;8.796;2023-04-26T11:12:06;5.93;;;3.90;;
47844;SDS011;33605;48.822;8.796;2023-04-26T11:14:36;9.70;;;3.80;;
47844;SDS011;33605;48.822;8.796;2023-04-26T11:17:05;4.00;;;3.60;;
47844;SDS011;33605;48.822;8.796;2023-04-26T11:19:32;4.73;;;3.83;;
47844;SDS011;33605;48.822;8.796;2023-04-26T11:21:58;6.07;;;4.13;;
47844;SDS011;33605;48.822;8.796;2023-04-26T11:24:25;11.47;;;3.90;;
47844;SDS011;33605;48.822;8.796;2023-04-26T11:26:52;6.97;;;3.30;;
47844;SDS011;33605;48.822;8.796;2023-04-26T11:29:18;6.37;;;3.63;;
47844;SDS011;33605;48.822;8.796;2023-04-26T11:31:54;6.77;;;4.07;;
47844;SDS011;33605;48.822;8.796;2023-04-26T11:34:21;14.50;;;3.60;;
47844;SDS011;33605;48.822;8.796;2023-04-26T11:36:47;6.53;;;4.37;;
47844;SDS011;33605;48.822;8.796;2023-04-26T11:39:13;5.00;;;3.00;;
47844;SDS011;33605;48.822;8.796;2023-04-26T11:41:40;10.33;;;3.33;;
47844;SDS011;33605;48.822;8.796;2023-04-26T11:44:06;5.37;;;3.20;;
47844;SDS011;33605;48.822;8.796;2023-04-26T11:46:32;4.73;;;3.67;;
47844;SDS011;33605;48.822;8.796;2023-04-26T11:48:58;5.43;;;3.20;;
47844;SDS011;33605;48.822;8.796;2023-04-26T11:51:24;5.67;;;3.10;;
47844;SDS011;33605;48.822;8.796;2023-04-26T11:53:50;4.83;;;3.00;;
47844;SDS011;33605;48.822;8.796;2023-04-26T11:56:17;4.60;;;3.10;;
47844;SDS011;33605;48.822;8.796;2023-04-26T11:58:48;9.50;;;3.70;;
47844;SDS011;33605;48.822;8.796;2023-04-26T12:01:24;5.13;;;3.00;;
47844;SDS011;33605;48.822;8.796;2023-04-26T12:03:50;56.03;;;8.00;;
47844;SDS011;33605;48.822;8.796;2023-04-26T12:06:17;26.67;;;5.30;;
47844;SDS011;33605;48.822;8.796;2023-04-26T12:08:50;15.00;;;4.33;;
47844;SDS011;33605;48.822;8.796;2023-04-26T12:11:16;12.27;;;3.90;;
47844;SDS011;33605;48.822;8.796;2023-04-26T12:13:42;10.00;;;3.80;;
47844;SDS011;33605;48.822;8.796;2023-04-26T12:16:08;6.63;;;3.40;;
47844;SDS011;33605;48.822;8.796;2023-04-26T12:18:34;10.03;;;3.60;;
47844;SDS011;33605;48.822;8.796;2023-04-26T12:21:00;4.13;;;3.37;;
47844;SDS011;33605;48.822;8.796;2023-04-26T12:23:26;4.77;;;3.00;;
47844;SDS011;33605;48.822;8.796;2023-04-26T12:25:53;7.70;;;6.90;;
47844;SDS011;33605;48.822;8.796;2023-04-26T12:28:19;4.37;;;3.77;;
47844;SDS011;33605;48.822;8.796;2023-04-26T12:30:47;4.20;;;3.23;;
47844;SDS011;33605;48.822;8.796;2023-04-26T12:33:13;5.47;;;3.43;;
47844;SDS011;33605;48.822;8.796;2023-04-26T12:35:40;3.00;;;2.73;;
47844;SDS011;33605;48.822;8.796;2023-04-26T12:38:06;4.80;;;2.70;;
47844;SDS011;33605;48.822;8.796;2023-04-26T12:40:32;4.57;;;2.73;;
47844;SDS011;33605;48.822;8.796;2023-04-26T12:42:58;3.93;;;3.53;;
47844;SDS011;33605;48.822;8.796;2023-04-26T12:45:24;3.57;;;3.10;;
47844;SDS011;33605;48.822;8.796;2023-04-26T12:47:51;3.23;;;2.93;;
47844;SDS011;33605;48.822;8.796;2023-04-26T12:50:17;5.17;;;2.93;;
47844;SDS011;33605;48.822;8.796;2023-04-26T12:52:43;4.00;;;3.60;;
47844;SDS011;33605;48.822;8.796;2023-04-26T12:55:10;3.87;;;3.20;;
47844;SDS011;33605;48.822;8.796;2023-04-26T12:57:37;5.50;;;3.40;;
47844;SDS011;33605;48.822;8.796;2023-04-26T13:00:04;6.23;;;3.73;;
47844;SDS011;33605;48.822;8.796;2023-04-26T13:02:30;7.70;;;3.53;;
47844;SDS011;33605;48.822;8.796;2023-04-26T13:04:56;4.07;;;2.80;;
47844;SDS011;33605;48.822;8.796;2023-04-26T13:07:22;5.90;;;2.83;;
47844;SDS011;33605;48.822;8.796;2023-04-26T13:09:48;4.10;;;2.63;;
47844;SDS011;33605;48.822;8.796;2023-04-26T13:12:14;3.80;;;2.70;;
47844;SDS011;33605;48.822;8.796;2023-04-26T13:14:40;5.53;;;3.40;;
47844;SDS011;33605;48.822;8.796;2023-04-26T13:17:07;5.87;;;3.57;;
47844;SDS011;33605;48.822;8.796;2023-04-26T13:19:33;6.70;;;3.27;;
47844;SDS011;33605;48.822;8.796;2023-04-26T13:22:03;7.20;;;3.57;;
47844;SDS011;33605;48.822;8.796;2023-04-26T13:24:32;8.10;;;3.50;;
47844;SDS011;33605;48.822;8.796;2023-04-26T13:26:58;5.97;;;3.63;;
47844;SDS011;33605;48.822;8.796;2023-04-26T13:29:23;4.17;;;2.93;;
47844;SDS011;33605;48.822;8.796;2023-04-26T13:31:49;3.90;;;3.07;;
47844;SDS011;33605;48.822;8.796;2023-04-26T13:34:15;3.03;;;2.73;;
47844;SDS011;33605;48.822;8.796;2023-04-26T13:36:42;3.77;;;3.40;;
47844;SDS011;33605;48.822;8.796;2023-04-26T13:39:08;3.10;;;2.80;;
47844;SDS011;33605;48.822;8.796;2023-04-26T13:41:35;4.00;;;3.23;;
47844;SDS011;33605;48.822;8.796;2023-04-26T13:44:01;5.90;;;2.70;;
47844;SDS011;33605;48.822;8.796;2023-04-26T13:46:28;4.67;;;3.23;;
47844;SDS011;33605;48.822;8.796;2023-04-26T13:48:55;4.90;;;3.03;;
47844;SDS011;33605;48.822;8.796;2023-04-26T13:51:21;5.17;;;2.93;;
47844;SDS011;33605;48.822;8.796;2023-04-26T13:53:49;2.50;;;2.30;;
47844;SDS011;33605;48.822;8.796;2023-04-26T13:56:15;3.00;;;2.60;;
47844;SDS011;33605;48.822;8.796;2023-04-26T13:58:42;5.80;;;2.80;;
47844;SDS011;33605;48.822;8.796;2023-04-26T14:01:08;4.33;;;2.40;;
47844;SDS011;33605;48.822;8.796;2023-04-26T14:03:34;3.83;;;2.67;;
47844;SDS011;33605;48.822;8.796;2023-04-26T14:06:00;5.47;;;2.77;;
47844;SDS011;33605;48.822;8.796;2023-04-26T14:08:29;2.80;;;2.60;;
47844;SDS011;33605;48.822;8.796;2023-04-26T14:10:55;4.13;;;2.43;;
47844;SDS011;33605;48.822;8.796;2023-04-26T14:13:21;2.97;;;2.53;;
47844;SDS011;33605;48.822;8.796;2023-04-26T14:15:48;4.83;;;2.97;;
47844;SDS011;33605;48.822;8.796;2023-04-26T14:18:14;2.77;;;2.57;;
47844;SDS011;33605;48.822;8.796;2023-04-26T14:20:40;5.70;;;2.60;;
47844;SDS011;33605;48.822;8.796;2023-04-26T14:23:06;7.23;;;2.77;;
47844;SDS011;33605;48.822;8.796;2023-04-26T14:25:32;3.03;;;2.40;;
47844;SDS011;33605;48.822;8.796;2023-04-26T14:27:59;3.63;;;2.70;;
47844;SDS011;33605;48.822;8.796;2023-04-26T14:30:25;7.77;;;3.10;;
47844;SDS011;33605;48.822;8.796;2023-04-26T14:32:51;4.50;;;3.10;;
47844;SDS011;33605;48.822;8.796;2023-04-26T14:35:17;3.50;;;2.43;;
47844;SDS011;33605;48.822;8.796;2023-04-26T14:37:43;3.23;;;2.60;;
47844;SDS011;33605;48.822;8.796;2023-04-26T14:40:10;3.60;;;2.47;;
47844;SDS011;33605;48.822;8.796;2023-04-26T14:42:36;3.90;;;2.40;;
47844;SDS011;33605;48.822;8.796;2023-04-26T14:45:08;5.00;;;2.80;;
47844;SDS011;33605;48.822;8.796;2023-04-26T14:47:34;2.90;;;2.47;;
47844;SDS011;33605;48.822;8.796;2023-04-26T14:50:00;3.10;;;2.33;;
47844;SDS011;33605;48.822;8.796;2023-04-26T14:52:26;4.47;;;2.80;;
47844;SDS011;33605;48.822;8.796;2023-04-26T14:54:53;3.00;;;2.80;;
47844;SDS011;33605;48.822;8.796;2023-04-26T14:57:19;3.00;;;2.50;;
47844;SDS011;33605;48.822;8.796;2023-04-26T14:59:45;7.73;;;2.53;;
47844;SDS011;33605;48.822;8.796;2023-04-26T15:02:11;5.03;;;2.80;;
47844;SDS011;33605;48.822;8.796;2023-04-26T15:04:37;3.53;;;2.50;;